sensor_id;sensor_type;location;lat;lon;timestamp;temperature;humidity
25512;DHT22;13414;44.534;18.700;2024-03-02T00:00:54;8.80;99.90
25512;DHT22;13414;44.534;18.700;2024-03-02T00:03:24;8.80;99.90
25512;DHT22;13414;44.534;18.700;2024-03-02T00:06:02;8.70;1.00
25512;DHT22;13414;44.534;18.700;2024-03-02T00:08:30;8.70;1.00
25512;DHT22;13414;44.534;18.700;2024-03-02T00:11:01;8.70;1.00
25512;DHT22;13414;44.534;18.700;2024-03-02T00:13:30;8.70;1.00
25512;DHT22;13414;44.534;18.700;2024-03-02T00:15:58;8.80;1.00
25512;DHT22;13414;44.534;18.700;2024-03-02T00:18:30;8.80;1.00
25512;DHT22;13414;44.534;18.700;2024-03-02T00:20:58;8.90;1.00
25512;DHT22;13414;44.534;18.700;2024-03-02T00:23:30;8.80;1.00
25512;DHT22;13414;44.534;18.700;2024-03-02T00:25:59;8.80;1.00
25512;DHT22;13414;44.534;18.700;2024-03-02T00:28:27;8.70;1.00
25512;DHT22;13414;44.534;18.700;2024-03-02T00:31:02;8.70;1.00
25512;DHT22;13414;44.534;18.700;2024-03-02T00:33:32;8.60;1.00
25512;DHT22;13414;44.534;18.700;2024-03-02T00:36:01;8.60;1.00
25512;DHT22;13414;44.534;18.700;2024-03-02T00:38:30;8.50;1.00
25512;DHT22;13414;44.534;18.700;2024-03-02T00:40:59;8.50;1.00
25512;DHT22;13414;44.534;18.700;2024-03-02T00:43:49;8.50;60.70
25512;DHT22;13414;44.534;18.700;2024-03-02T00:46:20;8.50;95.90
25512;DHT22;13414;44.534;18.700;2024-03-02T00:48:53;8.60;1.00
25512;DHT22;13414;44.534;18.700;2024-03-02T00:51:22;8.70;1.00
25512;DHT22;13414;44.534;18.700;2024-03-02T00:53:52;8.70;1.00
25512;DHT22;13414;44.534;18.700;2024-03-02T00:56:21;8.70;1.00
25512;DHT22;13414;44.534;18.700;2024-03-02T00:58:49;8.60;1.00
25512;DHT22;13414;44.534;18.700;2024-03-02T01:01:17;8.50;1.00
25512;DHT22;13414;44.534;18.700;2024-03-02T01:03:45;8.50;1.00
25512;DHT22;13414;44.534;18.700;2024-03-02T01:06:13;8.50;1.00
25512;DHT22;13414;44.534;18.700;2024-03-02T01:08:40;8.40;1.00
25512;DHT22;13414;44.534;18.700;2024-03-02T01:11:10;8.50;1.00
25512;DHT22;13414;44.534;18.700;2024-03-02T01:13:37;8.60;1.00
25512;DHT22;13414;44.534;18.700;2024-03-02T01:16:05;8.50;1.00
25512;DHT22;13414;44.534;18.700;2024-03-02T01:18:32;8.50;1.00
25512;DHT22;13414;44.534;18.700;2024-03-02T01:21:00;8.50;1.00
25512;DHT22;13414;44.534;18.700;2024-03-02T01:23:27;8.50;1.00
25512;DHT22;13414;44.534;18.700;2024-03-02T01:25:55;8.60;1.00
25512;DHT22;13414;44.534;18.700;2024-03-02T01:28:24;8.60;1.00
25512;DHT22;13414;44.534;18.700;2024-03-02T01:30:51;8.70;1.00
25512;DHT22;13414;44.534;18.700;2024-03-02T01:33:19;8.60;1.00
25512;DHT22;13414;44.534;18.700;2024-03-02T01:35:47;8.60;1.00
25512;DHT22;13414;44.534;18.700;2024-03-02T01:38:14;8.60;99.90
25512;DHT22;13414;44.534;18.700;2024-03-02T01:40:42;8.60;99.90
25512;DHT22;13414;44.534;18.700;2024-03-02T01:43:10;8.60;99.90
25512;DHT22;13414;44.534;18.700;2024-03-02T01:45:39;8.60;99.90
25512;DHT22;13414;44.534;18.700;2024-03-02T01:48:07;8.50;99.90
25512;DHT22;13414;44.534;18.700;2024-03-02T01:50:35;8.30;1.00
25512;DHT22;13414;44.534;18.700;2024-03-02T01:53:03;8.40;1.00
25512;DHT22;13414;44.534;18.700;2024-03-02T01:55:30;8.40;29.50
25512;DHT22;13414;44.534;18.700;2024-03-02T01:57:59;8.50;1.00
25512;DHT22;13414;44.534;18.700;2024-03-02T02:00:27;8.40;1.00
25512;DHT22;13414;44.534;18.700;2024-03-02T02:02:57;8.40;1.00
25512;DHT22;13414;44.534;18.700;2024-03-02T02:05:24;8.30;1.00
25512;DHT22;13414;44.534;18.700;2024-03-02T02:07:52;8.20;99.90
25512;DHT22;13414;44.534;18.700;2024-03-02T02:10:19;8.20;99.90
25512;DHT22;13414;44.534;18.700;2024-03-02T02:12:47;8.20;99.90
25512;DHT22;13414;44.534;18.700;2024-03-02T02:15:27;8.20;99.90
25512;DHT22;13414;44.534;18.700;2024-03-02T02:17:57;8.20;99.90
25512;DHT22;13414;44.534;18.700;2024-03-02T02:20:25;8.20;99.90
25512;DHT22;13414;44.534;18.700;2024-03-02T02:22:57;8.20;1.00
25512;DHT22;13414;44.534;18.700;2024-03-02T02:25:25;8.20;99.90
25512;DHT22;13414;44.534;18.700;2024-03-02T02:27:53;8.20;99.90
25512;DHT22;13414;44.534;18.700;2024-03-02T02:30:21;8.20;1.00
25512;DHT22;13414;44.534;18.700;2024-03-02T02:32:49;8.30;99.90
25512;DHT22;13414;44.534;18.700;2024-03-02T02:35:16;8.30;99.90
25512;DHT22;13414;44.534;18.700;2024-03-02T02:37:43;8.20;99.90
25512;DHT22;13414;44.534;18.700;2024-03-02T02:40:13;8.10;99.90
25512;DHT22;13414;44.534;18.700;2024-03-02T02:42:41;8.00;1.00
25512;DHT22;13414;44.534;18.700;2024-03-02T02:45:09;8.00;1.00
25512;DHT22;13414;44.534;18.700;2024-03-02T02:47:36;7.90;1.00
25512;DHT22;13414;44.534;18.700;2024-03-02T02:50:06;7.90;1.00
25512;DHT22;13414;44.534;18.700;2024-03-02T02:52:34;7.90;9.00
25512;DHT22;13414;44.534;18.700;2024-03-02T02:55:06;8.00;1.00
25512;DHT22;13414;44.534;18.700;2024-03-02T02:57:36;8.00;1.00
25512;DHT22;13414;44.534;18.700;2024-03-02T03:00:06;7.90;99.90
25512;DHT22;13414;44.534;18.700;2024-03-02T03:02:37;7.80;99.90
25512;DHT22;13414;44.534;18.700;2024-03-02T03:05:06;7.80;1.00
25512;DHT22;13414;44.534;18.700;2024-03-02T03:07:35;7.90;99.90
25512;DHT22;13414;44.534;18.700;2024-03-02T03:10:03;7.90;99.90
25512;DHT22;13414;44.534;18.700;2024-03-02T03:12:31;7.90;91.10
25512;DHT22;13414;44.534;18.700;2024-03-02T03:15:00;7.80;1.00
25512;DHT22;13414;44.534;18.700;2024-03-02T03:17:27;7.70;1.00
25512;DHT22;13414;44.534;18.700;2024-03-02T03:19:55;7.70;1.00
25512;DHT22;13414;44.534;18.700;2024-03-02T03:22:22;7.70;1.00
25512;DHT22;13414;44.534;18.700;2024-03-02T03:24:50;7.70;1.00
25512;DHT22;13414;44.534;18.700;2024-03-02T03:27:17;7.70;1.00
25512;DHT22;13414;44.534;18.700;2024-03-02T03:29:45;7.80;1.00
25512;DHT22;13414;44.534;18.700;2024-03-02T03:32:14;7.90;1.00
25512;DHT22;13414;44.534;18.700;2024-03-02T03:34:42;7.90;99.90
25512;DHT22;13414;44.534;18.700;2024-03-02T03:37:10;7.90;99.90
25512;DHT22;13414;44.534;18.700;2024-03-02T03:39:37;7.80;99.90
25512;DHT22;13414;44.534;18.700;2024-03-02T03:42:05;7.80;99.90
25512;DHT22;13414;44.534;18.700;2024-03-02T03:44:33;7.80;99.90
25512;DHT22;13414;44.534;18.700;2024-03-02T03:47:00;7.80;99.90
25512;DHT22;13414;44.534;18.700;2024-03-02T03:49:30;7.90;99.90
25512;DHT22;13414;44.534;18.700;2024-03-02T03:51:57;7.80;37.30
25512;DHT22;13414;44.534;18.700;2024-03-02T03:54:24;7.70;1.00
25512;DHT22;13414;44.534;18.700;2024-03-02T03:56:52;7.50;1.00
25512;DHT22;13414;44.534;18.700;2024-03-02T03:59:19;7.60;99.90
25512;DHT22;13414;44.534;18.700;2024-03-02T04:01:47;7.60;99.90
25512;DHT22;13414;44.534;18.700;2024-03-02T04:04:14;7.50;99.90
25512;DHT22;13414;44.534;18.700;2024-03-02T04:06:43;7.50;1.00
25512;DHT22;13414;44.534;18.700;2024-03-02T04:09:10;7.40;1.00
25512;DHT22;13414;44.534;18.700;2024-03-02T04:11:38;7.50;1.00
25512;DHT22;13414;44.534;18.700;2024-03-02T04:14:06;7.50;1.00
25512;DHT22;13414;44.534;18.700;2024-03-02T04:16:33;7.50;1.00
25512;DHT22;13414;44.534;18.700;2024-03-02T04:19:01;7.50;1.00
25512;DHT22;13414;44.534;18.700;2024-03-02T04:21:29;7.50;99.90
25512;DHT22;13414;44.534;18.700;2024-03-02T04:23:58;7.40;1.00
25512;DHT22;13414;44.534;18.700;2024-03-02T04:26:26;7.40;1.00
25512;DHT22;13414;44.534;18.700;2024-03-02T04:28:53;7.50;99.90
25512;DHT22;13414;44.534;18.700;2024-03-02T04:31:22;7.60;1.00
25512;DHT22;13414;44.534;18.700;2024-03-02T04:33:50;7.40;1.00
25512;DHT22;13414;44.534;18.700;2024-03-02T04:36:17;7.40;1.00
25512;DHT22;13414;44.534;18.700;2024-03-02T04:38:44;7.40;1.00
25512;DHT22;13414;44.534;18.700;2024-03-02T04:41:13;7.40;99.90
25512;DHT22;13414;44.534;18.700;2024-03-02T04:43:40;7.30;99.90
25512;DHT22;13414;44.534;18.700;2024-03-02T04:46:08;7.30;1.00
25512;DHT22;13414;44.534;18.700;2024-03-02T04:48:35;7.30;1.00
25512;DHT22;13414;44.534;18.700;2024-03-02T04:51:03;7.30;1.00
25512;DHT22;13414;44.534;18.700;2024-03-02T04:53:30;7.30;1.00
25512;DHT22;13414;44.534;18.700;2024-03-02T04:56:05;7.30;99.90
25512;DHT22;13414;44.534;18.700;2024-03-02T04:59:07;7.40;99.90
25512;DHT22;13414;44.534;18.700;2024-03-02T05:01:34;7.40;1.00
25512;DHT22;13414;44.534;18.700;2024-03-02T05:04:02;7.40;1.00
25512;DHT22;13414;44.534;18.700;2024-03-02T05:06:29;7.40;1.00
25512;DHT22;13414;44.534;18.700;2024-03-02T05:08:58;7.30;99.90
25512;DHT22;13414;44.534;18.700;2024-03-02T05:11:25;7.30;1.00
25512;DHT22;13414;44.534;18.700;2024-03-02T05:14:12;7.30;1.00
25512;DHT22;13414;44.534;18.700;2024-03-02T05:16:39;7.20;1.00
25512;DHT22;13414;44.534;18.700;2024-03-02T05:19:08;7.20;1.00
25512;DHT22;13414;44.534;18.700;2024-03-02T05:21:35;7.20;1.00
25512;DHT22;13414;44.534;18.700;2024-03-02T05:24:03;7.20;99.90
25512;DHT22;13414;44.534;18.700;2024-03-02T05:26:30;7.10;99.90
25512;DHT22;13414;44.534;18.700;2024-03-02T05:28:58;7.00;18.50
25512;DHT22;13414;44.534;18.700;2024-03-02T05:31:28;7.00;1.00
25512;DHT22;13414;44.534;18.700;2024-03-02T05:33:55;6.90;99.90
25512;DHT22;13414;44.534;18.700;2024-03-02T05:36:23;6.90;99.90
25512;DHT22;13414;44.534;18.700;2024-03-02T05:38:50;7.00;1.00
25512;DHT22;13414;44.534;18.700;2024-03-02T05:41:17;7.00;99.90
25512;DHT22;13414;44.534;18.700;2024-03-02T05:43:45;6.90;99.90
25512;DHT22;13414;44.534;18.700;2024-03-02T05:46:14;6.90;99.90
25512;DHT22;13414;44.534;18.700;2024-03-02T05:48:43;6.90;1.00
25512;DHT22;13414;44.534;18.700;2024-03-02T05:51:10;6.80;1.00
25512;DHT22;13414;44.534;18.700;2024-03-02T05:53:38;6.90;99.90
25512;DHT22;13414;44.534;18.700;2024-03-02T05:56:06;7.00;99.90
25512;DHT22;13414;44.534;18.700;2024-03-02T05:58:34;6.80;99.90
25512;DHT22;13414;44.534;18.700;2024-03-02T06:01:15;6.80;99.90
25512;DHT22;13414;44.534;18.700;2024-03-02T06:03:45;6.80;1.00
25512;DHT22;13414;44.534;18.700;2024-03-02T06:06:13;6.90;1.00
25512;DHT22;13414;44.534;18.700;2024-03-02T06:08:40;6.90;99.90
25512;DHT22;13414;44.534;18.700;2024-03-02T06:11:14;6.90;1.00
25512;DHT22;13414;44.534;18.700;2024-03-02T06:13:44;7.00;99.90
25512;DHT22;13414;44.534;18.700;2024-03-02T06:16:13;7.20;99.90
25512;DHT22;13414;44.534;18.700;2024-03-02T06:18:42;7.30;87.40
25512;DHT22;13414;44.534;18.700;2024-03-02T06:21:11;7.40;1.00
25512;DHT22;13414;44.534;18.700;2024-03-02T06:23:40;7.40;1.00
25512;DHT22;13414;44.534;18.700;2024-03-02T06:26:08;7.40;99.90
25512;DHT22;13414;44.534;18.700;2024-03-02T06:28:35;7.50;1.00
25512;DHT22;13414;44.534;18.700;2024-03-02T06:31:02;7.60;99.90
25512;DHT22;13414;44.534;18.700;2024-03-02T06:33:36;7.50;1.00
25512;DHT22;13414;44.534;18.700;2024-03-02T06:36:13;7.40;1.00
25512;DHT22;13414;44.534;18.700;2024-03-02T06:38:41;7.60;1.00
25512;DHT22;13414;44.534;18.700;2024-03-02T06:41:10;7.60;1.00
25512;DHT22;13414;44.534;18.700;2024-03-02T06:43:48;7.60;99.90
25512;DHT22;13414;44.534;18.700;2024-03-02T06:46:30;7.70;99.90
25512;DHT22;13414;44.534;18.700;2024-03-02T06:48:58;7.90;1.00
25512;DHT22;13414;44.534;18.700;2024-03-02T06:51:26;8.10;99.90
25512;DHT22;13414;44.534;18.700;2024-03-02T06:57:08;8.30;99.90
25512;DHT22;13414;44.534;18.700;2024-03-02T06:59:38;8.40;99.90
25512;DHT22;13414;44.534;18.700;2024-03-02T07:02:06;8.50;1.00
25512;DHT22;13414;44.534;18.700;2024-03-02T07:04:34;8.60;1.00
25512;DHT22;13414;44.534;18.700;2024-03-02T07:07:03;8.60;1.00
25512;DHT22;13414;44.534;18.700;2024-03-02T07:09:31;8.90;1.00
25512;DHT22;13414;44.534;18.700;2024-03-02T07:11:58;9.10;99.90
25512;DHT22;13414;44.534;18.700;2024-03-02T07:14:26;9.30;99.90
25512;DHT22;13414;44.534;18.700;2024-03-02T07:17:13;9.60;99.90
25512;DHT22;13414;44.534;18.700;2024-03-02T07:19:41;9.80;1.00
25512;DHT22;13414;44.534;18.700;2024-03-02T07:22:10;10.10;1.00
25512;DHT22;13414;44.534;18.700;2024-03-02T07:24:43;10.30;99.90
25512;DHT22;13414;44.534;18.700;2024-03-02T07:27:14;10.60;1.00
25512;DHT22;13414;44.534;18.700;2024-03-02T07:29:48;10.70;1.00
25512;DHT22;13414;44.534;18.700;2024-03-02T07:32:19;10.70;1.00
25512;DHT22;13414;44.534;18.700;2024-03-02T07:34:48;10.80;1.00
25512;DHT22;13414;44.534;18.700;2024-03-02T07:37:18;10.70;1.00
25512;DHT22;13414;44.534;18.700;2024-03-02T07:39:46;10.90;1.00
25512;DHT22;13414;44.534;18.700;2024-03-02T07:42:14;11.00;1.00
25512;DHT22;13414;44.534;18.700;2024-03-02T07:44:41;11.10;99.90
25512;DHT22;13414;44.534;18.700;2024-03-02T07:47:10;11.20;99.90
25512;DHT22;13414;44.534;18.700;2024-03-02T07:49:38;11.20;99.90
25512;DHT22;13414;44.534;18.700;2024-03-02T07:52:06;11.20;99.90
25512;DHT22;13414;44.534;18.700;2024-03-02T07:54:35;11.40;99.90
25512;DHT22;13414;44.534;18.700;2024-03-02T07:57:03;11.50;99.90
25512;DHT22;13414;44.534;18.700;2024-03-02T07:59:31;11.50;99.90
25512;DHT22;13414;44.534;18.700;2024-03-02T08:01:59;11.40;99.90
25512;DHT22;13414;44.534;18.700;2024-03-02T08:04:26;11.60;99.90
25512;DHT22;13414;44.534;18.700;2024-03-02T08:06:54;12.00;99.90
25512;DHT22;13414;44.534;18.700;2024-03-02T08:09:22;12.20;99.90
25512;DHT22;13414;44.534;18.700;2024-03-02T08:11:51;12.50;1.00
25512;DHT22;13414;44.534;18.700;2024-03-02T08:14:19;12.80;1.00
25512;DHT22;13414;44.534;18.700;2024-03-02T08:16:46;13.20;1.00
25512;DHT22;13414;44.534;18.700;2024-03-02T08:19:14;13.40;1.00
25512;DHT22;13414;44.534;18.700;2024-03-02T08:21:43;13.60;1.00
25512;DHT22;13414;44.534;18.700;2024-03-02T08:24:10;13.80;1.00
25512;DHT22;13414;44.534;18.700;2024-03-02T08:26:39;13.90;1.00
25512;DHT22;13414;44.534;18.700;2024-03-02T08:29:09;14.20;1.00
25512;DHT22;13414;44.534;18.700;2024-03-02T08:31:37;14.40;1.00
25512;DHT22;13414;44.534;18.700;2024-03-02T08:34:05;14.40;1.00
25512;DHT22;13414;44.534;18.700;2024-03-02T08:36:32;14.20;1.00
25512;DHT22;13414;44.534;18.700;2024-03-02T08:44:36;14.60;1.00
25512;DHT22;13414;44.534;18.700;2024-03-02T08:50:45;15.20;1.00
25512;DHT22;13414;44.534;18.700;2024-03-02T08:56:55;15.00;1.00
25512;DHT22;13414;44.534;18.700;2024-03-02T08:59:23;14.90;1.00
25512;DHT22;13414;44.534;18.700;2024-03-02T09:01:53;14.80;1.00
25512;DHT22;13414;44.534;18.700;2024-03-02T09:04:21;14.70;1.00
25512;DHT22;13414;44.534;18.700;2024-03-02T09:07:05;14.70;1.00
25512;DHT22;13414;44.534;18.700;2024-03-02T09:09:35;14.70;1.00
25512;DHT22;13414;44.534;18.700;2024-03-02T09:12:08;14.80;1.00
25512;DHT22;13414;44.534;18.700;2024-03-02T09:14:35;15.00;1.00
25512;DHT22;13414;44.534;18.700;2024-03-02T09:17:04;15.20;1.00
25512;DHT22;13414;44.534;18.700;2024-03-02T09:19:31;15.40;1.00
25512;DHT22;13414;44.534;18.700;2024-03-02T09:21:59;15.50;1.00
25512;DHT22;13414;44.534;18.700;2024-03-02T09:24:30;15.70;1.00
25512;DHT22;13414;44.534;18.700;2024-03-02T09:26:59;15.90;1.00
25512;DHT22;13414;44.534;18.700;2024-03-02T09:29:26;15.90;1.00
25512;DHT22;13414;44.534;18.700;2024-03-02T09:31:54;15.50;1.00
25512;DHT22;13414;44.534;18.700;2024-03-02T09:34:22;15.60;1.00
25512;DHT22;13414;44.534;18.700;2024-03-02T09:36:50;15.80;1.00
25512;DHT22;13414;44.534;18.700;2024-03-02T09:39:21;15.90;1.00
25512;DHT22;13414;44.534;18.700;2024-03-02T09:41:50;15.90;1.00
25512;DHT22;13414;44.534;18.700;2024-03-02T09:44:20;16.10;1.00
25512;DHT22;13414;44.534;18.700;2024-03-02T09:46:49;16.20;1.00
25512;DHT22;13414;44.534;18.700;2024-03-02T09:49:17;16.30;1.00
25512;DHT22;13414;44.534;18.700;2024-03-02T09:51:47;16.20;1.00
25512;DHT22;13414;44.534;18.700;2024-03-02T09:54:17;16.40;1.00
25512;DHT22;13414;44.534;18.700;2024-03-02T09:56:45;16.30;1.00
25512;DHT22;13414;44.534;18.700;2024-03-02T09:59:23;16.20;1.00
25512;DHT22;13414;44.534;18.700;2024-03-02T10:01:57;16.20;1.00
25512;DHT22;13414;44.534;18.700;2024-03-02T10:04:26;16.10;1.00
25512;DHT22;13414;44.534;18.700;2024-03-02T10:07:12;16.10;1.00
25512;DHT22;13414;44.534;18.700;2024-03-02T10:09:40;16.30;1.00
25512;DHT22;13414;44.534;18.700;2024-03-02T10:12:09;16.50;1.00
25512;DHT22;13414;44.534;18.700;2024-03-02T10:14:41;16.50;1.00
25512;DHT22;13414;44.534;18.700;2024-03-02T10:17:10;16.50;1.00
25512;DHT22;13414;44.534;18.700;2024-03-02T10:19:40;16.70;1.00
25512;DHT22;13414;44.534;18.700;2024-03-02T10:22:09;16.70;1.00
25512;DHT22;13414;44.534;18.700;2024-03-02T10:24:37;16.70;1.00
25512;DHT22;13414;44.534;18.700;2024-03-02T10:27:09;16.80;1.00
25512;DHT22;13414;44.534;18.700;2024-03-02T10:29:40;16.80;1.00
25512;DHT22;13414;44.534;18.700;2024-03-02T10:32:11;16.90;1.00
25512;DHT22;13414;44.534;18.700;2024-03-02T10:34:43;16.80;1.00
25512;DHT22;13414;44.534;18.700;2024-03-02T10:37:15;16.80;1.00
25512;DHT22;13414;44.534;18.700;2024-03-02T10:39:43;16.90;1.00
25512;DHT22;13414;44.534;18.700;2024-03-02T10:42:14;16.90;1.00
25512;DHT22;13414;44.534;18.700;2024-03-02T10:44:45;16.80;1.00
25512;DHT22;13414;44.534;18.700;2024-03-02T10:47:14;16.90;1.00
25512;DHT22;13414;44.534;18.700;2024-03-02T10:49:45;16.80;1.00
25512;DHT22;13414;44.534;18.700;2024-03-02T10:52:14;16.90;1.00
25512;DHT22;13414;44.534;18.700;2024-03-02T10:54:48;17.00;1.00
25512;DHT22;13414;44.534;18.700;2024-03-02T10:57:21;17.10;1.00
25512;DHT22;13414;44.534;18.700;2024-03-02T11:00:04;16.90;1.00
25512;DHT22;13414;44.534;18.700;2024-03-02T11:02:49;16.70;1.00
25512;DHT22;13414;44.534;18.700;2024-03-02T11:05:26;16.80;1.00
25512;DHT22;13414;44.534;18.700;2024-03-02T11:08:01;17.10;1.00
25512;DHT22;13414;44.534;18.700;2024-03-02T11:10:48;17.20;1.00
25512;DHT22;13414;44.534;18.700;2024-03-02T11:13:31;17.30;1.00
25512;DHT22;13414;44.534;18.700;2024-03-02T11:16:11;17.40;1.00
25512;DHT22;13414;44.534;18.700;2024-03-02T11:18:57;17.50;1.00
25512;DHT22;13414;44.534;18.700;2024-03-02T11:21:30;17.50;1.00
25512;DHT22;13414;44.534;18.700;2024-03-02T11:24:31;17.50;1.00
25512;DHT22;13414;44.534;18.700;2024-03-02T11:27:06;17.60;1.00
25512;DHT22;13414;44.534;18.700;2024-03-02T11:29:49;17.50;1.00
25512;DHT22;13414;44.534;18.700;2024-03-02T11:32:22;17.60;1.00
25512;DHT22;13414;44.534;18.700;2024-03-02T11:35:01;17.60;1.00
25512;DHT22;13414;44.534;18.700;2024-03-02T11:37:34;17.60;1.00
25512;DHT22;13414;44.534;18.700;2024-03-02T11:40:26;17.70;1.00
25512;DHT22;13414;44.534;18.700;2024-03-02T11:42:54;17.70;1.00
25512;DHT22;13414;44.534;18.700;2024-03-02T11:45:32;17.80;1.00
25512;DHT22;13414;44.534;18.700;2024-03-02T11:51:06;17.90;1.00
25512;DHT22;13414;44.534;18.700;2024-03-02T11:53:39;17.90;1.00
25512;DHT22;13414;44.534;18.700;2024-03-02T11:56:16;17.80;1.00
25512;DHT22;13414;44.534;18.700;2024-03-02T11:58:50;17.80;1.00
25512;DHT22;13414;44.534;18.700;2024-03-02T12:01:29;17.80;1.00
25512;DHT22;13414;44.534;18.700;2024-03-02T12:04:07;17.80;1.00
25512;DHT22;13414;44.534;18.700;2024-03-02T12:06:44;17.70;1.00
25512;DHT22;13414;44.534;18.700;2024-03-02T12:09:17;17.70;1.00
25512;DHT22;13414;44.534;18.700;2024-03-02T12:11:53;17.80;1.00
25512;DHT22;13414;44.534;18.700;2024-03-02T12:14:30;17.90;1.00
25512;DHT22;13414;44.534;18.700;2024-03-02T12:17:06;18.00;1.00
25512;DHT22;13414;44.534;18.700;2024-03-02T12:19:37;17.90;1.00
25512;DHT22;13414;44.534;18.700;2024-03-02T12:22:05;17.90;1.00
25512;DHT22;13414;44.534;18.700;2024-03-02T12:24:38;18.00;1.00
25512;DHT22;13414;44.534;18.700;2024-03-02T12:27:08;18.10;1.00
25512;DHT22;13414;44.534;18.700;2024-03-02T12:29:36;18.20;1.00
25512;DHT22;13414;44.534;18.700;2024-03-02T12:32:43;18.10;1.00
25512;DHT22;13414;44.534;18.700;2024-03-02T12:35:37;18.20;1.00
25512;DHT22;13414;44.534;18.700;2024-03-02T12:38:19;18.20;1.00
25512;DHT22;13414;44.534;18.700;2024-03-02T12:40:48;18.30;1.00
25512;DHT22;13414;44.534;18.700;2024-03-02T12:43:30;18.40;1.00
25512;DHT22;13414;44.534;18.700;2024-03-02T12:45:58;18.40;1.00
25512;DHT22;13414;44.534;18.700;2024-03-02T12:48:28;18.50;1.00
25512;DHT22;13414;44.534;18.700;2024-03-02T12:50:59;18.50;1.00
25512;DHT22;13414;44.534;18.700;2024-03-02T12:53:31;18.70;1.00
25512;DHT22;13414;44.534;18.700;2024-03-02T12:55:59;18.60;1.00
25512;DHT22;13414;44.534;18.700;2024-03-02T12:58:26;18.60;1.00
25512;DHT22;13414;44.534;18.700;2024-03-02T13:01:06;18.60;1.00
25512;DHT22;13414;44.534;18.700;2024-03-02T13:03:47;18.70;1.00
25512;DHT22;13414;44.534;18.700;2024-03-02T13:06:17;18.80;1.00
25512;DHT22;13414;44.534;18.700;2024-03-02T13:08:45;18.90;1.00
25512;DHT22;13414;44.534;18.700;2024-03-02T13:11:13;18.90;1.00
25512;DHT22;13414;44.534;18.700;2024-03-02T13:13:43;18.60;1.00
25512;DHT22;13414;44.534;18.700;2024-03-02T13:16:15;18.50;1.00
25512;DHT22;13414;44.534;18.700;2024-03-02T13:18:50;18.50;1.00
25512;DHT22;13414;44.534;18.700;2024-03-02T13:21:22;18.30;1.00
25512;DHT22;13414;44.534;18.700;2024-03-02T13:23:49;18.30;1.00
25512;DHT22;13414;44.534;18.700;2024-03-02T13:26:17;18.40;1.00
25512;DHT22;13414;44.534;18.700;2024-03-02T13:28:45;18.50;1.00
25512;DHT22;13414;44.534;18.700;2024-03-02T13:31:12;18.60;1.00
25512;DHT22;13414;44.534;18.700;2024-03-02T13:33:40;18.90;1.00
25512;DHT22;13414;44.534;18.700;2024-03-02T13:36:08;18.70;1.00
25512;DHT22;13414;44.534;18.700;2024-03-02T13:38:43;18.60;1.00
25512;DHT22;13414;44.534;18.700;2024-03-02T13:41:10;18.50;1.00
25512;DHT22;13414;44.534;18.700;2024-03-02T13:43:38;18.60;1.00
25512;DHT22;13414;44.534;18.700;2024-03-02T13:46:06;18.60;1.00
25512;DHT22;13414;44.534;18.700;2024-03-02T13:48:38;18.60;1.00
25512;DHT22;13414;44.534;18.700;2024-03-02T13:51:09;18.70;1.00
25512;DHT22;13414;44.534;18.700;2024-03-02T13:53:36;18.80;1.00
25512;DHT22;13414;44.534;18.700;2024-03-02T13:56:06;18.90;1.00
25512;DHT22;13414;44.534;18.700;2024-03-02T13:58:34;19.00;1.00
25512;DHT22;13414;44.534;18.700;2024-03-02T14:01:02;18.90;1.00
25512;DHT22;13414;44.534;18.700;2024-03-02T14:03:31;18.60;1.00
25512;DHT22;13414;44.534;18.700;2024-03-02T14:06:03;18.60;1.00
25512;DHT22;13414;44.534;18.700;2024-03-02T14:08:32;18.70;1.00
25512;DHT22;13414;44.534;18.700;2024-03-02T14:11:02;18.80;1.00
25512;DHT22;13414;44.534;18.700;2024-03-02T14:13:31;18.90;1.00
25512;DHT22;13414;44.534;18.700;2024-03-02T14:16:01;18.90;1.00
25512;DHT22;13414;44.534;18.700;2024-03-02T14:18:30;19.00;1.00
25512;DHT22;13414;44.534;18.700;2024-03-02T14:20:58;19.00;1.00
25512;DHT22;13414;44.534;18.700;2024-03-02T14:23:26;19.10;1.00
25512;DHT22;13414;44.534;18.700;2024-03-02T14:25:57;19.10;1.00
25512;DHT22;13414;44.534;18.700;2024-03-02T14:28:25;19.20;1.00
25512;DHT22;13414;44.534;18.700;2024-03-02T14:30:54;19.20;1.00
25512;DHT22;13414;44.534;18.700;2024-03-02T14:33:22;19.20;1.00
25512;DHT22;13414;44.534;18.700;2024-03-02T14:35:49;19.10;1.00
25512;DHT22;13414;44.534;18.700;2024-03-02T14:38:18;19.10;1.00
25512;DHT22;13414;44.534;18.700;2024-03-02T14:40:46;18.80;1.00
25512;DHT22;13414;44.534;18.700;2024-03-02T14:43:14;18.40;1.00
25512;DHT22;13414;44.534;18.700;2024-03-02T14:45:43;18.00;1.00
25512;DHT22;13414;44.534;18.700;2024-03-02T14:48:12;17.70;1.00
25512;DHT22;13414;44.534;18.700;2024-03-02T14:50:39;17.50;1.00
25512;DHT22;13414;44.534;18.700;2024-03-02T14:53:07;17.60;1.00
25512;DHT22;13414;44.534;18.700;2024-03-02T14:55:35;17.50;1.00
25512;DHT22;13414;44.534;18.700;2024-03-02T14:58:03;17.40;1.00
25512;DHT22;13414;44.534;18.700;2024-03-02T15:00:30;17.40;1.00
25512;DHT22;13414;44.534;18.700;2024-03-02T15:02:58;17.20;1.00
25512;DHT22;13414;44.534;18.700;2024-03-02T15:05:27;17.10;1.00
25512;DHT22;13414;44.534;18.700;2024-03-02T15:07:55;17.10;1.00
25512;DHT22;13414;44.534;18.700;2024-03-02T15:10:24;17.10;1.00
25512;DHT22;13414;44.534;18.700;2024-03-02T15:12:53;17.00;1.00
25512;DHT22;13414;44.534;18.700;2024-03-02T15:15:21;17.00;1.00
25512;DHT22;13414;44.534;18.700;2024-03-02T15:17:52;16.90;1.00
25512;DHT22;13414;44.534;18.700;2024-03-02T15:20:20;16.90;1.00
25512;DHT22;13414;44.534;18.700;2024-03-02T15:22:49;16.90;1.00
25512;DHT22;13414;44.534;18.700;2024-03-02T15:25:17;16.90;1.00
25512;DHT22;13414;44.534;18.700;2024-03-02T15:27:44;16.90;1.00
25512;DHT22;13414;44.534;18.700;2024-03-02T15:30:12;16.90;1.00
25512;DHT22;13414;44.534;18.700;2024-03-02T15:32:40;16.90;1.00
25512;DHT22;13414;44.534;18.700;2024-03-02T15:35:08;16.90;1.00
25512;DHT22;13414;44.534;18.700;2024-03-02T15:37:36;16.90;1.00
25512;DHT22;13414;44.534;18.700;2024-03-02T15:40:07;16.80;1.00
25512;DHT22;13414;44.534;18.700;2024-03-02T15:42:35;16.80;1.00
25512;DHT22;13414;44.534;18.700;2024-03-02T15:45:03;16.80;1.00
25512;DHT22;13414;44.534;18.700;2024-03-02T15:47:30;16.80;1.00
25512;DHT22;13414;44.534;18.700;2024-03-02T15:49:58;16.70;1.00
25512;DHT22;13414;44.534;18.700;2024-03-02T15:52:26;16.60;1.00
25512;DHT22;13414;44.534;18.700;2024-03-02T15:54:53;16.50;1.00
25512;DHT22;13414;44.534;18.700;2024-03-02T15:57:22;16.60;1.00
25512;DHT22;13414;44.534;18.700;2024-03-02T15:59:50;16.60;1.00
25512;DHT22;13414;44.534;18.700;2024-03-02T16:02:19;16.50;1.00
25512;DHT22;13414;44.534;18.700;2024-03-02T16:04:47;16.40;1.00
25512;DHT22;13414;44.534;18.700;2024-03-02T16:07:14;16.40;1.00
25512;DHT22;13414;44.534;18.700;2024-03-02T16:09:45;16.40;1.00
25512;DHT22;13414;44.534;18.700;2024-03-02T16:12:12;16.40;1.00